Pagina principală
METAR-TAF:

METAR-TAF

Aeroporturi :

Wahoo, Nebraska, Statele Unite ale Americii

Latitudine: 41-14-26N, longitudine: 096-35-40W, elevație: 373 m

Observații meteo curente

Raportul a fost făcut în urmă cu 36 de minute, la 01:15 UTC
Vânt 16 kt de la Nord/Nord-vest cu rafale de până la 22 kt
Temperatură 16°C
Umiditate 77%
Presiune 1007 hPa
Vizibilitate: 16.1 km
Nori împrăștiați la o înălțime de 3100 picior
Nori împrăștiați la o înălțime de 3800 picior
Nori fragmentați la o înălțime de 4900 picior

METAR: KAHQ 220115Z AUTO 33016G22KT 10SM SCT031 SCT038 BKN049 16/12 A2973 RMK AO2 T01570116

Ora: 20:51 (01:51 UTC)


TAF: lipsă

Observații și prognoze meteo pentru peste 4.000 de aeroporturi (rapoarte METAR și TAF).

Stațiile disponibile sunt reprezentate pe hartă prin puncte galbene și roșii.

Țineți indicatorul mouse-ului pe punctul dorit pentru a vedea denumirea stației.

Apoi, faceți clic pentru a vedea observațiile și prognozele meteorologice.

Pentru a schimba harta: Pentru mărire, faceți clic pe butoanele verzi cu cruce neagră; pentru micșorare, pe butonul verde cu o liniuță; pentru hărți învecinate, pe săgețile verzi.


METAR-TAF: